Time;durP1;ratioP1;P1;durP2;ratioP2;P2;SDS_P1;SDS_P2;PMS_P1;PMS_P2;Temp;Humidity;BMP_temperature;BMP_pressure;BME280_temperature;BME280_humidity;BME280_pressure;Samples;Min_cycle;Max_cycle;Signal;HPM_P1;HPM_P2
2023/03/10 00:00:23;;;;;;;22.63;16.42;;;;;;;;;;5072600;28;20165;-76
2023/03/10 00:02:49;;;;;;;30.17;19.05;;;;;;;;;;5079220;28;20115;-75
2023/03/10 00:05:15;;;;;;;18.30;15.10;;;;;;;;;;5057942;28;20047;-77
2023/03/10 00:07:42;;;;;;;27.73;16.92;;;;;;;;;;5074751;28;20028;-75
2023/03/10 00:10:09;;;;;;;78.32;45.03;;;;;;;;;;5092723;28;20052;-75
2023/03/10 00:12:36;;;;;;;18.50;12.82;;;;;;;;;;5076381;28;20040;-75
2023/03/10 00:15:03;;;;;;;13.85;9.60;;;;;;;;;;5093885;28;20085;-76
2023/03/10 00:17:30;;;;;;;12.38;9.43;;;;;;;;;;5093191;28;20036;-76
2023/03/10 00:19:56;;;;;;;12.02;8.88;;;;;;;;;;5092017;28;20055;-76
2023/03/10 00:22:21;;;;;;;16.20;5.80;;;;;;;;;;5092758;28;20117;-77
2023/03/10 00:24:47;;;;;;;7.68;6.93;;;;;;;;;;5074209;28;20032;-75
2023/03/10 00:27:13;;;;;;;7.82;7.00;;;;;;;;;;5092161;28;20573;-75
2023/03/10 00:29:39;;;;;;;10.25;7.35;;;;;;;;;;5092390;28;20040;-76
2023/03/10 00:32:05;;;;;;;9.63;8.20;;;;;;;;;;5074299;28;20048;-73
2023/03/10 00:34:32;;;;;;;9.55;6.13;;;;;;;;;;5074690;28;20089;-76
2023/03/10 00:36:58;;;;;;;11.45;7.38;;;;;;;;;;5074064;28;20036;-76
2023/03/10 00:39:23;;;;;;;10.95;6.90;;;;;;;;;;5092503;28;20035;-77
2023/03/10 00:41:50;;;;;;;6.68;6.03;;;;;;;;;;5092033;28;20038;-77
2023/03/10 00:44:16;;;;;;;7.38;6.10;;;;;;;;;;5092444;28;20032;-75
2023/03/10 00:46:42;;;;;;;7.07;5.97;;;;;;;;;;5092197;28;20446;-76
2023/03/10 00:49:10;;;;;;;9.52;6.03;;;;;;;;;;5091942;28;20043;-76
2023/03/10 00:51:35;;;;;;;7.22;5.50;;;;;;;;;;5040636;28;20063;-75
2023/03/10 00:54:01;;;;;;;7.25;6.45;;;;;;;;;;5091843;28;20039;-76
2023/03/10 00:56:28;;;;;;;7.38;6.57;;;;;;;;;;5057915;28;20141;-76
2023/03/10 00:58:54;;;;;;;7.20;6.50;;;;;;;;;;5058601;28;20030;-77
2023/03/10 01:01:22;;;;;;;7.38;6.40;;;;;;;;;;5092231;28;20035;-75
2023/03/10 01:03:51;;;;;;;5.38;4.88;;;;;;;;;;5091283;28;20507;-76
2023/03/10 01:06:17;;;;;;;6.85;6.25;;;;;;;;;;5091795;28;20524;-77
2023/03/10 01:08:44;;;;;;;6.65;4.97;;;;;;;;;;5073553;28;20036;-77
2023/03/10 01:11:14;;;;;;;5.18;4.65;;;;;;;;;;5091383;28;20419;-76
2023/03/10 01:13:41;;;;;;;4.43;4.13;;;;;;;;;;5057281;28;20550;-76
2023/03/10 01:16:08;;;;;;;4.13;3.83;;;;;;;;;;5073336;28;20089;-75
2023/03/10 01:18:34;;;;;;;3.38;3.17;;;;;;;;;;5091146;28;20113;-75
2023/03/10 01:21:00;;;;;;;5.40;4.88;;;;;;;;;;5090742;28;20040;-75
2023/03/10 01:23:26;;;;;;;5.20;4.40;;;;;;;;;;5073466;28;20087;-75
2023/03/10 01:25:52;;;;;;;4.18;3.78;;;;;;;;;;5056266;28;20047;-75
2023/03/10 01:28:18;;;;;;;4.25;3.85;;;;;;;;;;5073376;28;20059;-75
2023/03/10 01:30:44;;;;;;;4.07;3.50;;;;;;;;;;5073038;28;20105;-75
2023/03/10 01:33:11;;;;;;;5.10;4.70;;;;;;;;;;5091041;28;20024;-75
2023/03/10 01:35:37;;;;;;;4.20;3.90;;;;;;;;;;5072793;28;20051;-75
2023/03/10 01:38:03;;;;;;;3.92;3.63;;;;;;;;;;5072580;28;20553;-75
2023/03/10 01:40:29;;;;;;;4.22;3.92;;;;;;;;;;5056155;28;20085;-75
2023/03/10 01:43:13;;;;;;;3.65;3.35;;;;;;;;;;5090554;28;20113;-75
2023/03/10 01:45:39;;;;;;;3.15;2.97;;;;;;;;;;5072865;28;20517;-75
2023/03/10 01:48:05;;;;;;;4.05;3.72;;;;;;;;;;5072789;28;20084;-74
2023/03/10 01:50:32;;;;;;;4.80;3.88;;;;;;;;;;5056374;28;20078;-75
2023/03/10 01:52:57;;;;;;;7.32;5.32;;;;;;;;;;5072008;28;20067;-75
2023/03/10 01:55:25;;;;;;;7.93;6.78;;;;;;;;;;5073053;28;20111;-77
2023/03/10 01:57:52;;;;;;;8.45;7.60;;;;;;;;;;5055985;28;20043;-75
2023/03/10 02:00:19;;;;;;;9.30;8.40;;;;;;;;;;5072645;28;20032;-75
2023/03/10 02:02:48;;;;;;;6.80;5.40;;;;;;;;;;5072715;28;20035;-76
2023/03/10 02:05:14;;;;;;;7.50;6.80;;;;;;;;;;5072243;28;20067;-75
2023/03/10 02:07:40;;;;;;;5.38;4.90;;;;;;;;;;5056100;28;20381;-76
2023/03/10 02:10:06;;;;;;;4.63;4.30;;;;;;;;;;5055601;28;20069;-76
2023/03/10 02:12:32;;;;;;;5.07;3.95;;;;;;;;;;5090429;28;20040;-75
2023/03/10 02:14:59;;;;;;;5.82;3.92;;;;;;;;;;5072185;28;20032;-74
2023/03/10 02:17:25;;;;;;;4.30;4.00;;;;;;;;;;5072198;28;20655;-75
2023/03/10 02:20:10;;;;;;;4.30;4.00;;;;;;;;;;5088360;28;20071;-75
2023/03/10 02:22:37;;;;;;;4.55;4.07;;;;;;;;;;5072238;28;20075;-75
2023/03/10 02:25:06;;;;;;;4.10;3.70;;;;;;;;;;5055683;28;20527;-74
2023/03/10 02:27:33;;;;;;;3.90;3.15;;;;;;;;;;5072062;28;20080;-75
2023/03/10 02:30:06;;;;;;;3.35;3.15;;;;;;;;;;5038744;28;20044;-75
2023/03/10 02:32:36;;;;;;;3.55;3.25;;;;;;;;;;5072080;28;20070;-75
2023/03/10 02:35:02;;;;;;;3.30;3.10;;;;;;;;;;5038591;28;20056;-76
2023/03/10 02:37:30;;;;;;;4.03;3.63;;;;;;;;;;5071994;28;20507;-76
2023/03/10 02:39:57;;;;;;;5.50;3.60;;;;;;;;;;5071606;28;20055;-75
2023/03/10 02:42:24;;;;;;;3.83;3.53;;;;;;;;;;5071952;28;20038;-76
2023/03/10 02:44:50;;;;;;;3.63;3.42;;;;;;;;;;5071981;28;20181;-75
2023/03/10 02:47:17;;;;;;;4.57;4.28;;;;;;;;;;5054335;28;20518;-76
2023/03/10 02:49:43;;;;;;;3.45;3.25;;;;;;;;;;5072105;28;20055;-76
2023/03/10 02:52:13;;;;;;;3.22;3.00;;;;;;;;;;5055130;28;20507;-75
2023/03/10 02:54:39;;;;;;;3.78;3.47;;;;;;;;;;5071987;28;20043;-74
2023/03/10 02:57:05;;;;;;;4.35;4.05;;;;;;;;;;5083103;28;20040;-73
2023/03/10 02:59:31;;;;;;;3.80;3.10;;;;;;;;;;5071748;28;20024;-74
2023/03/10 03:01:57;;;;;;;3.17;2.97;;;;;;;;;;5071449;28;20569;-75
2023/03/10 03:04:23;;;;;;;3.08;2.88;;;;;;;;;;5071521;28;20256;-75
2023/03/10 03:06:50;;;;;;;3.88;3.58;;;;;;;;;;5071497;28;20748;-76
2023/03/10 03:09:16;;;;;;;4.55;4.22;;;;;;;;;;5071352;28;20511;-74
2023/03/10 03:11:44;;;;;;;2.58;2.45;;;;;;;;;;5055039;28;20036;-75
2023/03/10 03:14:10;;;;;;;4.28;3.92;;;;;;;;;;5054595;28;20058;-77
2023/03/10 03:16:37;;;;;;;3.50;3.30;;;;;;;;;;5054721;28;20039;-76
2023/03/10 03:19:07;;;;;;;3.50;3.28;;;;;;;;;;5054367;28;20055;-75
2023/03/10 03:21:33;;;;;;;4.13;3.83;;;;;;;;;;5089444;28;20067;-75
2023/03/10 03:23:59;;;;;;;3.65;3.35;;;;;;;;;;5071291;28;20637;-75
2023/03/10 03:26:26;;;;;;;3.70;3.40;;;;;;;;;;5071639;28;20123;-76
2023/03/10 03:28:59;;;;;;;4.60;3.72;;;;;;;;;;5071166;28;20521;-75
2023/03/10 03:31:29;;;;;;;3.58;3.28;;;;;;;;;;5074016;28;20098;-82
2023/03/10 03:34:04;;;;;;;3.35;3.15;;;;;;;;;;5075351;28;20499;-75
2023/03/10 03:36:31;;;;;;;3.70;3.50;;;;;;;;;;5075076;28;20470;-75
2023/03/10 03:38:57;;;;;;;3.20;3.00;;;;;;;;;;5074868;28;20032;-75
2023/03/10 03:41:25;;;;;;;3.85;3.58;;;;;;;;;;5075298;28;20510;-76
2023/03/10 03:43:51;;;;;;;3.65;3.45;;;;;;;;;;5059019;28;20503;-77
2023/03/10 03:46:17;;;;;;;3.40;2.92;;;;;;;;;;5074930;28;20046;-77
2023/03/10 03:48:44;;;;;;;3.65;3.05;;;;;;;;;;5059089;28;20097;-77
2023/03/10 03:51:13;;;;;;;3.20;3.00;;;;;;;;;;5059297;28;20435;-76
2023/03/10 03:53:41;;;;;;;3.03;2.83;;;;;;;;;;5075433;28;20561;-77
2023/03/10 03:56:07;;;;;;;3.83;3.58;;;;;;;;;;5093217;28;20036;-76
2023/03/10 03:58:36;;;;;;;4.13;3.83;;;;;;;;;;5093369;28;20032;-77
2023/03/10 04:01:02;;;;;;;4.72;4.38;;;;;;;;;;5092465;28;20089;-77
2023/03/10 04:03:33;;;;;;;4.10;3.80;;;;;;;;;;5074792;28;20032;-76
2023/03/10 04:05:59;;;;;;;3.35;3.15;;;;;;;;;;5075165;28;20039;-76
2023/03/10 04:08:25;;;;;;;3.60;3.33;;;;;;;;;;5092816;28;20714;-75
2023/03/10 04:10:52;;;;;;;2.85;2.65;;;;;;;;;;5057586;28;20435;-77
2023/03/10 04:13:20;;;;;;;6.13;3.40;;;;;;;;;;5092425;28;20036;-75
2023/03/10 04:15:47;;;;;;;3.63;3.40;;;;;;;;;;5074868;28;20040;-76
2023/03/10 04:18:14;;;;;;;3.58;3.28;;;;;;;;;;5092015;28;20126;-76
2023/03/10 04:20:41;;;;;;;2.55;2.35;;;;;;;;;;5073212;28;20111;-76
2023/03/10 04:23:08;;;;;;;3.28;3.05;;;;;;;;;;5095521;28;20055;-77
2023/03/10 04:25:35;;;;;;;3.17;2.97;;;;;;;;;;5076276;28;20043;-76
2023/03/10 04:28:02;;;;;;;2.60;2.45;;;;;;;;;;5058393;28;20031;-77
2023/03/10 04:30:29;;;;;;;4.25;3.95;;;;;;;;;;5094185;28;20117;-76
2023/03/10 04:32:58;;;;;;;3.40;3.20;;;;;;;;;;5092742;28;20070;-77
2023/03/10 04:35:24;;;;;;;3.78;3.47;;;;;;;;;;5074226;28;20068;-77
2023/03/10 04:37:51;;;;;;;14.65;3.63;;;;;;;;;;5057829;28;20032;-76
2023/03/10 04:40:17;;;;;;;5.18;3.30;;;;;;;;;;5074526;28;20460;-77
2023/03/10 04:42:43;;;;;;;4.55;3.40;;;;;;;;;;5073523;28;20032;-77
2023/03/10 04:45:10;;;;;;;3.80;3.50;;;;;;;;;;5074725;28;20532;-77
2023/03/10 04:47:37;;;;;;;3.30;3.00;;;;;;;;;;5057484;28;20036;-76
2023/03/10 04:50:05;;;;;;;6.13;4.72;;;;;;;;;;5057240;28;20035;-76
2023/03/10 04:52:31;;;;;;;3.67;3.45;;;;;;;;;;5092055;28;20119;-76
2023/03/10 04:54:57;;;;;;;5.80;3.55;;;;;;;;;;5074049;28;20102;-76
2023/03/10 04:57:23;;;;;;;8.50;4.10;;;;;;;;;;5073823;28;20040;-76
2023/03/10 04:59:51;;;;;;;4.60;3.83;;;;;;;;;;5074032;28;20404;-76
2023/03/10 05:02:17;;;;;;;3.70;3.35;;;;;;;;;;5056893;28;20036;-76
2023/03/10 05:04:43;;;;;;;4.90;4.57;;;;;;;;;;5092873;28;20078;-77
2023/03/10 05:07:10;;;;;;;4.20;3.90;;;;;;;;;;5075261;28;20128;-77
2023/03/10 05:09:41;;;;;;;4.20;3.88;;;;;;;;;;5094618;28;20648;-76
2023/03/10 05:12:07;;;;;;;4.03;3.72;;;;;;;;;;5090292;28;20039;-75
2023/03/10 05:14:35;;;;;;;3.30;3.10;;;;;;;;;;5045385;28;20024;-75
2023/03/10 05:17:01;;;;;;;3.95;3.65;;;;;;;;;;5090787;28;20512;-75
2023/03/10 05:19:28;;;;;;;4.10;3.70;;;;;;;;;;5073560;28;20131;-75
2023/03/10 05:21:57;;;;;;;4.72;3.85;;;;;;;;;;5073929;28;20040;-75
2023/03/10 05:24:23;;;;;;;3.30;3.10;;;;;;;;;;5072480;28;20474;-75
2023/03/10 05:26:49;;;;;;;3.50;3.20;;;;;;;;;;5073434;28;20066;-75
2023/03/10 05:29:15;;;;;;;3.45;3.25;;;;;;;;;;5091369;28;20107;-75
2023/03/10 05:31:49;;;;;;;4.05;3.63;;;;;;;;;;5070962;28;20446;-76
2023/03/10 05:34:22;;;;;;;6.15;3.40;;;;;;;;;;5059566;28;20036;-75
2023/03/10 05:36:49;;;;;;;2.55;2.45;;;;;;;;;;5088359;28;20123;-75
2023/03/10 05:39:16;;;;;;;3.25;3.05;;;;;;;;;;5052440;28;20571;-73
2023/03/10 05:41:45;;;;;;;3.45;3.25;;;;;;;;;;5070293;28;20032;-74
2023/03/10 05:44:12;;;;;;;3.58;3.25;;;;;;;;;;5054760;28;20499;-73
2023/03/10 05:46:39;;;;;;;4.20;3.88;;;;;;;;;;5071901;28;20479;-74
2023/03/10 05:49:05;;;;;;;5.10;3.63;;;;;;;;;;5084235;28;20148;-73
2023/03/10 05:51:31;;;;;;;4.55;4.15;;;;;;;;;;5069807;28;20050;-75
2023/03/10 05:54:00;;;;;;;4.10;3.70;;;;;;;;;;5070190;28;20032;-75
2023/03/10 05:56:28;;;;;;;3.72;3.47;;;;;;;;;;5062187;28;20032;-74
2023/03/10 05:58:58;;;;;;;5.03;4.63;;;;;;;;;;5087029;28;20515;-73
2023/03/10 06:01:29;;;;;;;4.15;3.83;;;;;;;;;;5069009;28;20158;-75
2023/03/10 06:03:55;;;;;;;2.92;2.78;;;;;;;;;;5066703;28;20111;-73
2023/03/10 06:06:21;;;;;;;4.47;4.07;;;;;;;;;;5051411;28;20127;-74
2023/03/10 06:08:47;;;;;;;3.53;3.22;;;;;;;;;;5069938;28;20448;-74
2023/03/10 06:11:13;;;;;;;4.28;3.88;;;;;;;;;;5054251;28;20044;-75
2023/03/10 06:13:39;;;;;;;4.22;3.88;;;;;;;;;;5089338;28;20050;-75
2023/03/10 06:16:05;;;;;;;3.55;3.30;;;;;;;;;;5089097;28;20035;-73
2023/03/10 06:18:32;;;;;;;3.35;3.15;;;;;;;;;;5088991;28;20606;-73
2023/03/10 06:20:58;;;;;;;4.03;3.72;;;;;;;;;;5089282;28;20174;-74
2023/03/10 06:23:24;;;;;;;5.35;4.95;;;;;;;;;;5085968;28;20123;-73
2023/03/10 06:25:58;;;;;;;5.57;5.25;;;;;;;;;;5089221;28;20044;-73
2023/03/10 06:28:23;;;;;;;5.20;4.78;;;;;;;;;;5068717;28;20093;-73
2023/03/10 06:30:55;;;;;;;3.47;3.28;;;;;;;;;;5086618;28;20047;-73
2023/03/10 06:33:22;;;;;;;5.95;4.68;;;;;;;;;;5086592;28;20032;-73
2023/03/10 06:35:48;;;;;;;4.65;4.35;;;;;;;;;;5087284;28;20032;-74
2023/03/10 06:38:14;;;;;;;4.45;4.15;;;;;;;;;;5086570;28;20039;-74
2023/03/10 06:40:40;;;;;;;4.38;4.05;;;;;;;;;;5087431;28;20044;-74
2023/03/10 06:43:06;;;;;;;5.60;4.80;;;;;;;;;;5088531;28;20066;-74
2023/03/10 06:45:34;;;;;;;5.25;4.85;;;;;;;;;;5089118;28;20062;-73
2023/03/10 06:48:00;;;;;;;4.80;4.50;;;;;;;;;;5088181;28;20085;-73
2023/03/10 06:50:34;;;;;;;5.20;4.70;;;;;;;;;;5087907;28;20055;-74
2023/03/10 06:53:00;;;;;;;5.32;4.80;;;;;;;;;;5089184;28;20424;-73
2023/03/10 06:55:26;;;;;;;5.20;4.28;;;;;;;;;;5065122;28;20051;-73
2023/03/10 06:57:52;;;;;;;5.25;4.75;;;;;;;;;;5090014;28;20036;-75
2023/03/10 07:00:18;;;;;;;4.05;3.67;;;;;;;;;;5089250;28;20595;-74
2023/03/10 07:02:44;;;;;;;4.43;4.13;;;;;;;;;;5089642;28;20047;-73
2023/03/10 07:05:11;;;;;;;4.70;4.40;;;;;;;;;;5090194;28;20412;-74
2023/03/10 07:07:37;;;;;;;5.22;4.85;;;;;;;;;;5092828;28;20024;-74
2023/03/10 07:10:04;;;;;;;4.82;4.47;;;;;;;;;;5091495;28;20039;-74
2023/03/10 07:12:30;;;;;;;5.70;5.20;;;;;;;;;;5097877;28;20044;-74
2023/03/10 07:14:56;;;;;;;6.50;6.00;;;;;;;;;;5080334;28;20043;-75
2023/03/10 07:17:22;;;;;;;7.90;4.97;;;;;;;;;;5078608;28;20033;-73
2023/03/10 07:19:48;;;;;;;5.65;4.82;;;;;;;;;;5092814;28;20062;-74
2023/03/10 07:22:14;;;;;;;5.65;5.18;;;;;;;;;;5098098;28;20028;-74
2023/03/10 07:24:40;;;;;;;6.43;5.93;;;;;;;;;;5093833;28;20099;-73
2023/03/10 07:27:06;;;;;;;4.20;3.90;;;;;;;;;;5069848;28;20089;-73
2023/03/10 07:29:34;;;;;;;3.58;2.72;;;;;;;;;;5087473;28;20064;-74
2023/03/10 07:32:01;;;;;;;5.25;4.72;;;;;;;;;;5070694;28;20644;-74
2023/03/10 07:34:27;;;;;;;4.32;3.92;;;;;;;;;;5088769;28;20043;-73
2023/03/10 07:36:54;;;;;;;4.93;4.53;;;;;;;;;;5089485;28;20093;-74
2023/03/10 07:39:20;;;;;;;3.50;3.30;;;;;;;;;;5088505;28;20032;-74
2023/03/10 07:41:46;;;;;;;3.08;2.78;;;;;;;;;;5088999;28;20442;-74
2023/03/10 07:44:12;;;;;;;6.03;5.43;;;;;;;;;;5087659;28;20032;-74
2023/03/10 07:46:38;;;;;;;5.32;4.90;;;;;;;;;;5089090;28;20039;-74
2023/03/10 07:49:04;;;;;;;3.78;3.42;;;;;;;;;;5087369;28;20036;-74
2023/03/10 07:51:30;;;;;;;5.13;4.72;;;;;;;;;;5068289;28;20571;-74
2023/03/10 07:53:56;;;;;;;5.55;4.85;;;;;;;;;;5050019;28;20036;-73
2023/03/10 07:56:22;;;;;;;4.88;4.47;;;;;;;;;;5085149;28;20043;-76
2023/03/10 07:58:48;;;;;;;4.82;4.43;;;;;;;;;;5053869;28;20032;-74
2023/03/10 08:01:16;;;;;;;4.03;3.72;;;;;;;;;;5070031;28;20032;-74
2023/03/10 08:03:42;;;;;;;6.28;4.32;;;;;;;;;;5088560;28;20028;-74
2023/03/10 08:06:08;;;;;;;5.32;4.82;;;;;;;;;;5088520;28;20575;-74
2023/03/10 08:08:34;;;;;;;4.95;4.60;;;;;;;;;;5070143;28;20040;-73
2023/03/10 08:11:04;;;;;;;5.57;4.93;;;;;;;;;;5067926;28;20136;-74
2023/03/10 08:13:30;;;;;;;3.80;3.58;;;;;;;;;;5049835;28;20124;-75
2023/03/10 08:15:57;;;;;;;3.75;3.45;;;;;;;;;;5067757;28;20037;-72
2023/03/10 08:18:24;;;;;;;4.47;4.18;;;;;;;;;;5020166;28;20048;-74
2023/03/10 08:20:50;;;;;;;6.53;3.92;;;;;;;;;;5036949;28;20038;-74
2023/03/10 08:23:16;;;;;;;3.95;3.60;;;;;;;;;;5070535;28;20040;-73
2023/03/10 08:25:43;;;;;;;4.75;4.35;;;;;;;;;;5090203;28;20039;-74
2023/03/10 08:28:09;;;;;;;3.88;3.50;;;;;;;;;;5091413;28;20062;-74
2023/03/10 08:30:37;;;;;;;3.50;3.20;;;;;;;;;;5091373;28;20040;-76
2023/03/10 08:33:03;;;;;;;4.43;4.13;;;;;;;;;;5084281;28;20500;-75
2023/03/10 08:35:29;;;;;;;4.22;3.50;;;;;;;;;;5071786;28;20038;-73
2023/03/10 08:37:55;;;;;;;5.43;4.97;;;;;;;;;;5092004;28;20082;-73
2023/03/10 08:40:21;;;;;;;3.53;3.33;;;;;;;;;;5090960;28;20055;-75
2023/03/10 08:42:47;;;;;;;5.13;4.43;;;;;;;;;;5089845;28;20032;-77
2023/03/10 08:45:13;;;;;;;4.32;4.00;;;;;;;;;;5069421;28;20103;-75
2023/03/10 08:47:39;;;;;;;4.10;3.80;;;;;;;;;;5054246;28;20555;-76
2023/03/10 08:50:08;;;;;;;5.43;5.03;;;;;;;;;;5087205;28;20585;-74
2023/03/10 08:52:34;;;;;;;3.40;3.17;;;;;;;;;;5066989;28;20032;-75
2023/03/10 08:55:00;;;;;;;4.78;4.38;;;;;;;;;;5055138;28;20194;-74
2023/03/10 08:57:29;;;;;;;4.43;4.00;;;;;;;;;;5089047;28;20182;-75
2023/03/10 08:59:55;;;;;;;4.05;3.78;;;;;;;;;;5089417;28;20910;-74
2023/03/10 09:02:21;;;;;;;3.88;3.58;;;;;;;;;;5090115;28;20036;-74
2023/03/10 09:04:47;;;;;;;3.13;2.92;;;;;;;;;;5090525;28;20043;-76
2023/03/10 09:07:13;;;;;;;4.13;3.72;;;;;;;;;;5072366;28;20039;-75
2023/03/10 09:09:39;;;;;;;4.47;4.18;;;;;;;;;;5056030;28;20039;-75
2023/03/10 09:12:07;;;;;;;3.60;3.40;;;;;;;;;;5072918;28;20043;-75
2023/03/10 09:14:34;;;;;;;3.97;3.63;;;;;;;;;;5073256;28;20129;-75
2023/03/10 09:17:00;;;;;;;4.47;4.18;;;;;;;;;;5072987;28;20035;-74
2023/03/10 09:19:26;;;;;;;4.72;4.43;;;;;;;;;;5090591;28;20052;-75
2023/03/10 09:21:52;;;;;;;3.92;3.45;;;;;;;;;;5090947;28;20054;-74
2023/03/10 09:24:18;;;;;;;4.55;4.15;;;;;;;;;;5055727;28;20047;-74
2023/03/10 09:26:45;;;;;;;4.43;4.03;;;;;;;;;;5090575;28;20042;-74
2023/03/10 09:29:11;;;;;;;3.53;3.33;;;;;;;;;;5089502;28;20122;-75
2023/03/10 09:31:38;;;;;;;3.65;3.35;;;;;;;;;;5055782;28;20489;-74
2023/03/10 09:34:04;;;;;;;3.67;3.40;;;;;;;;;;5090346;28;20032;-75
2023/03/10 09:36:30;;;;;;;4.35;4.05;;;;;;;;;;5090706;28;20028;-74
2023/03/10 09:38:57;;;;;;;4.97;4.57;;;;;;;;;;5090479;28;20032;-74
2023/03/10 09:41:39;;;;;;;3.38;3.17;;;;;;;;;;5089197;28;20553;-75
2023/03/10 09:44:14;;;;;;;4.35;4.05;;;;;;;;;;5089251;28;20028;-74
2023/03/10 09:47:00;;;;;;;6.10;3.60;;;;;;;;;;5090607;28;20035;-75
2023/03/10 09:49:34;;;;;;;4.35;3.97;;;;;;;;;;5090313;28;20039;-74
2023/03/10 09:52:02;;;;;;;3.90;3.60;;;;;;;;;;5089197;28;20122;-74
2023/03/10 09:54:32;;;;;;;5.78;4.13;;;;;;;;;;5088772;28;20411;-76
2023/03/10 09:56:58;;;;;;;5.47;5.07;;;;;;;;;;5068984;28;20035;-76
2023/03/10 09:59:34;;;;;;;3.97;3.67;;;;;;;;;;5071432;28;20032;-76
2023/03/10 10:02:01;;;;;;;4.82;4.32;;;;;;;;;;5071924;28;20495;-76
2023/03/10 10:04:34;;;;;;;4.50;4.18;;;;;;;;;;5054870;28;20040;-76
2023/03/10 10:07:00;;;;;;;4.72;4.32;;;;;;;;;;5038331;28;20028;-75
2023/03/10 10:09:29;;;;;;;4.13;3.83;;;;;;;;;;5088921;28;20070;-74
2023/03/10 10:11:55;;;;;;;6.38;3.55;;;;;;;;;;5067217;28;20040;-75
2023/03/10 10:14:24;;;;;;;3.55;3.35;;;;;;;;;;5062781;28;20024;-75
2023/03/10 10:17:13;;;;;;;4.63;4.32;;;;;;;;;;5089584;28;20032;-74
2023/03/10 10:19:39;;;;;;;2.85;2.67;;;;;;;;;;5061406;28;20511;-74
2023/03/10 10:22:26;;;;;;;4.35;3.95;;;;;;;;;;5089228;28;20547;-76
2023/03/10 10:25:08;;;;;;;4.32;3.83;;;;;;;;;;5088750;28;20062;-74
2023/03/10 10:27:35;;;;;;;4.80;4.50;;;;;;;;;;5071558;28;20496;-75
2023/03/10 10:30:27;;;;;;;5.85;5.35;;;;;;;;;;5086295;28;20515;-74
2023/03/10 10:32:54;;;;;;;4.57;4.25;;;;;;;;;;5062989;28;20067;-74
2023/03/10 10:35:21;;;;;;;4.45;4.15;;;;;;;;;;5072616;28;20528;-74
2023/03/10 10:37:47;;;;;;;3.60;3.30;;;;;;;;;;5072087;28;20183;-73
2023/03/10 10:40:25;;;;;;;5.43;4.88;;;;;;;;;;5061235;28;20136;-74
2023/03/10 10:42:52;;;;;;;4.70;4.18;;;;;;;;;;5089021;28;20122;-74
2023/03/10 10:45:22;;;;;;;5.82;5.22;;;;;;;;;;5086437;28;20031;-73
2023/03/10 10:47:49;;;;;;;4.90;4.55;;;;;;;;;;5064119;28;20032;-73
2023/03/10 10:50:22;;;;;;;5.82;4.80;;;;;;;;;;5070891;28;20064;-74
2023/03/10 10:52:52;;;;;;;4.45;4.15;;;;;;;;;;5084950;28;20111;-75
2023/03/10 10:55:21;;;;;;;6.13;4.82;;;;;;;;;;5070653;28;20060;-73
2023/03/10 10:57:52;;;;;;;7.90;2.85;;;;;;;;;;5085845;28;20039;-73
2023/03/10 11:00:25;;;;;;;5.32;4.90;;;;;;;;;;5089090;28;20055;-73
2023/03/10 11:02:51;;;;;;;4.47;4.13;;;;;;;;;;5085436;28;20506;-73
2023/03/10 11:05:18;;;;;;;4.05;3.75;;;;;;;;;;5087997;28;20024;-73
2023/03/10 11:07:44;;;;;;;4.43;4.10;;;;;;;;;;5086130;28;20039;-74
2023/03/10 11:10:14;;;;;;;3.90;3.63;;;;;;;;;;5081928;28;20024;-75
2023/03/10 11:12:45;;;;;;;3.55;3.35;;;;;;;;;;5086518;28;20437;-72
2023/03/10 11:15:11;;;;;;;;;;;;;;;;;;5069965;28;20055;-73
2023/03/10 11:17:50;;;;;;;4.93;4.43;;;;;;;;;;5095101;28;19959;-73
2023/03/10 11:20:26;;;;;;;6.97;5.22;;;;;;;;;;5080216;28;20086;-74
2023/03/10 11:23:11;;;;;;;5.07;4.72;;;;;;;;;;5076315;28;20530;-75
2023/03/10 11:25:41;;;;;;;5.05;4.40;;;;;;;;;;5094846;28;20043;-73
2023/03/10 11:28:13;;;;;;;4.95;4.55;;;;;;;;;;5076874;28;20504;-74
2023/03/10 11:30:45;;;;;;;6.80;6.20;;;;;;;;;;5089429;28;20163;-73
2023/03/10 11:33:19;;;;;;;5.43;4.93;;;;;;;;;;5070745;28;20028;-74
2023/03/10 11:35:50;;;;;;;5.00;4.60;;;;;;;;;;5096170;28;20530;-74
2023/03/10 11:38:32;;;;;;;3.40;3.20;;;;;;;;;;5072989;28;20120;-74
2023/03/10 11:40:58;;;;;;;4.28;3.88;;;;;;;;;;5090413;28;20071;-74
2023/03/10 11:43:33;;;;;;;3.38;3.17;;;;;;;;;;5079266;28;20028;-74
2023/03/10 11:46:07;;;;;;;6.25;5.55;;;;;;;;;;5075454;28;20040;-75
2023/03/10 11:48:37;;;;;;;3.90;3.63;;;;;;;;;;5058245;28;20040;-74
2023/03/10 11:51:03;;;;;;;5.18;4.80;;;;;;;;;;5074747;28;20040;-74
2023/03/10 11:53:37;;;;;;;6.55;2.67;;;;;;;;;;5062166;28;20502;-75
2023/03/10 11:56:03;;;;;;;2.58;2.47;;;;;;;;;;5082782;28;20415;-75
2023/03/10 11:58:38;;;;;;;6.60;5.30;;;;;;;;;;5098884;28;20411;-75
2023/03/10 12:01:06;;;;;;;5.70;5.20;;;;;;;;;;5099028;28;20949;-74
2023/03/10 12:03:35;;;;;;;3.65;3.45;;;;;;;;;;5102134;28;20031;-75
2023/03/10 12:06:02;;;;;;;4.80;4.50;;;;;;;;;;5091987;28;20032;-74
2023/03/10 12:08:30;;;;;;;5.38;3.97;;;;;;;;;;5096640;28;20462;-74
2023/03/10 12:10:56;;;;;;;4.57;4.13;;;;;;;;;;5044656;28;20046;-74
2023/03/10 12:13:26;;;;;;;3.13;2.92;;;;;;;;;;5083922;28;20142;-74
2023/03/10 12:15:56;;;;;;;1.88;1.88;;;;;;;;;;5098497;28;20035;-75
2023/03/10 12:18:22;;;;;;;4.47;4.07;;;;;;;;;;5073052;28;20072;-75
2023/03/10 12:20:58;;;;;;;3.40;3.20;;;;;;;;;;5074006;28;20119;-74
2023/03/10 12:23:23;;;;;;;3.38;3.17;;;;;;;;;;5073456;28;20032;-75
2023/03/10 12:25:50;;;;;;;3.50;3.30;;;;;;;;;;5071224;28;20028;-74
2023/03/10 12:28:16;;;;;;;4.57;4.18;;;;;;;;;;5055379;28;20028;-74
2023/03/10 12:30:45;;;;;;;5.80;5.30;;;;;;;;;;5071795;28;20043;-74
2023/03/10 12:33:40;;;;;;;4.50;4.18;;;;;;;;;;5090273;28;20039;-74
2023/03/10 12:36:15;;;;;;;4.40;3.58;;;;;;;;;;5082611;28;20044;-75
2023/03/10 12:38:56;;;;;;;5.80;5.40;;;;;;;;;;5070857;28;20522;-73
2023/03/10 12:41:25;;;;;;;5.70;5.20;;;;;;;;;;5089622;28;20027;-75
2023/03/10 12:44:00;;;;;;;5.45;4.97;;;;;;;;;;5071824;28;20032;-75
2023/03/10 12:46:36;;;;;;;5.20;4.80;;;;;;;;;;5087060;28;20832;-74
2023/03/10 12:49:22;;;;;;;5.00;4.65;;;;;;;;;;5089210;28;20038;-74
2023/03/10 12:51:57;;;;;;;3.90;3.60;;;;;;;;;;5086072;28;20044;-74
2023/03/10 12:54:32;;;;;;;4.15;3.75;;;;;;;;;;5084856;28;20036;-75
2023/03/10 12:57:00;;;;;;;4.00;3.75;;;;;;;;;;5087460;28;20040;-74
2023/03/10 12:59:26;;;;;;;4.90;4.53;;;;;;;;;;5070386;28;20035;-74
2023/03/10 13:01:52;;;;;;;7.57;5.00;;;;;;;;;;5088896;28;20560;-74
2023/03/10 13:04:19;;;;;;;5.53;5.03;;;;;;;;;;5086859;28;20074;-75
2023/03/10 13:06:45;;;;;;;5.55;5.10;;;;;;;;;;5084754;28;20034;-74
2023/03/10 13:09:14;;;;;;;4.18;3.83;;;;;;;;;;5085936;28;20680;-74
2023/03/10 13:11:42;;;;;;;7.55;4.93;;;;;;;;;;5080492;28;20052;-73
2023/03/10 13:14:11;;;;;;;3.72;3.45;;;;;;;;;;5069544;28;20056;-73
2023/03/10 13:16:54;;;;;;;2.95;2.75;;;;;;;;;;5061302;28;20040;-73
2023/03/10 13:19:24;;;;;;;3.88;3.58;;;;;;;;;;5071936;28;20048;-72
2023/03/10 13:21:51;;;;;;;3.40;3.20;;;;;;;;;;5072630;28;20122;-74
2023/03/10 13:24:24;;;;;;;3.35;3.05;;;;;;;;;;5084178;28;20476;-73
2023/03/10 13:27:02;;;;;;;4.57;4.18;;;;;;;;;;5071099;28;20046;-73
2023/03/10 13:29:39;;;;;;;2.78;2.60;;;;;;;;;;5086818;28;20028;-73
2023/03/10 13:32:17;;;;;;;2.65;2.45;;;;;;;;;;5085971;28;20063;-72
2023/03/10 13:34:52;;;;;;;4.40;4.10;;;;;;;;;;5060129;28;20530;-73
2023/03/10 13:37:46;;;;;;;3.35;3.15;;;;;;;;;;5087660;28;20059;-73
2023/03/10 13:40:20;;;;;;;3.03;2.45;;;;;;;;;;5069375;28;20059;-77
2023/03/10 13:43:04;;;;;;;3.20;2.90;;;;;;;;;;5071767;28;20040;-74
2023/03/10 13:46:18;;;;;;;2.92;2.80;;;;;;;;;;5065839;28;20515;-73
2023/03/10 13:53:26;;;;;;;4.40;4.10;;;;;;;;;;5062872;28;20071;-74
2023/03/10 13:56:30;;;;;;;3.42;3.10;;;;;;;;;;5065362;28;20045;-73
2023/03/10 13:59:46;;;;;;;3.88;3.58;;;;;;;;;;5064742;28;20392;-74
2023/03/10 14:02:35;;;;;;;3.80;3.50;;;;;;;;;;5082956;28;20107;-73
2023/03/10 14:05:44;;;;;;;5.35;3.95;;;;;;;;;;5061092;28;20036;-72
2023/03/10 14:08:27;;;;;;;4.13;3.63;;;;;;;;;;5110042;28;20035;-73
2023/03/10 14:10:53;;;;;;;3.88;3.58;;;;;;;;;;5109322;28;20035;-72
2023/03/10 14:13:39;;;;;;;4.10;3.80;;;;;;;;;;5074468;28;20028;-73
2023/03/10 14:16:05;;;;;;;2.28;2.17;;;;;;;;;;5066559;28;20068;-72
2023/03/10 14:18:35;;;;;;;4.63;3.53;;;;;;;;;;5088041;28;20036;-73
2023/03/10 14:21:20;;;;;;;4.95;4.38;;;;;;;;;;5085560;28;20043;-72
2023/03/10 14:23:46;;;;;;;3.42;3.20;;;;;;;;;;5084401;28;20133;-74
2023/03/10 14:26:14;;;;;;;2.58;2.28;;;;;;;;;;5079487;28;20103;-71
2023/03/10 14:28:40;;;;;;;4.35;4.03;;;;;;;;;;5061866;28;20036;-71
2023/03/10 14:31:13;;;;;;;5.13;4.20;;;;;;;;;;5062406;28;20056;-71
2023/03/10 14:33:39;;;;;;;6.88;4.47;;;;;;;;;;5066523;28;20108;-72
2023/03/10 14:36:10;;;;;;;4.90;4.50;;;;;;;;;;5084082;28;20116;-71
2023/03/10 14:38:36;;;;;;;2.73;2.53;;;;;;;;;;5083797;28;20398;-72
2023/03/10 14:41:02;;;;;;;6.68;4.82;;;;;;;;;;5082906;28;20059;-71
2023/03/10 14:43:30;;;;;;;3.33;2.58;;;;;;;;;;5066889;28;20051;-70
2023/03/10 14:45:57;;;;;;;3.25;2.97;;;;;;;;;;5084141;28;20036;-70
2023/03/10 14:48:23;;;;;;;5.00;4.13;;;;;;;;;;5083657;28;20127;-70
2023/03/10 14:50:49;;;;;;;5.63;5.13;;;;;;;;;;5048709;28;20125;-71
2023/03/10 14:53:16;;;;;;;5.30;4.80;;;;;;;;;;5084243;28;20065;-71
2023/03/10 14:55:42;;;;;;;4.10;3.80;;;;;;;;;;5084204;28;20043;-71
2023/03/10 14:58:10;;;;;;;1.88;1.85;;;;;;;;;;5065354;28;20039;-71